createdAt,value
2023-05-19T00:02:28.442Z,92.60
2023-05-19T00:04:58.735Z,92.50
2023-05-19T00:07:32.754Z,92.60
2023-05-19T00:10:02.991Z,92.30
2023-05-19T00:12:33.504Z,92.40
2023-05-19T00:15:05.574Z,92.50
2023-05-19T00:17:37.728Z,93.00
2023-05-19T00:20:09.494Z,93.20
2023-05-19T00:22:39.194Z,93.00
2023-05-19T00:25:10.032Z,93.40
2023-05-19T00:27:41.172Z,93.70
2023-05-19T00:30:13.036Z,94.00
2023-05-19T00:32:43.643Z,93.90
2023-05-19T00:35:13.684Z,93.90
2023-05-19T00:37:43.506Z,93.60
2023-05-19T00:40:13.419Z,94.10
2023-05-19T00:42:43.745Z,94.00
2023-05-19T00:45:14.993Z,94.00
2023-05-19T00:47:44.707Z,94.30
2023-05-19T00:50:14.922Z,94.80
2023-05-19T00:52:44.642Z,95.00
2023-05-19T00:55:15.788Z,95.50
2023-05-19T00:57:46.494Z,95.60
2023-05-19T01:00:18.878Z,95.30
2023-05-19T01:02:50.768Z,95.30
2023-05-19T01:05:20.576Z,95.90
2023-05-19T01:07:55.968Z,96.30
2023-05-19T01:10:25.587Z,96.40
2023-05-19T01:12:55.321Z,96.80
2023-05-19T01:15:28.805Z,96.70
2023-05-19T01:18:07.739Z,96.50
2023-05-19T01:20:41.877Z,96.40
2023-05-19T01:23:30.897Z,96.90
2023-05-19T01:26:32.964Z,97.10
2023-05-19T01:29:42.624Z,96.70
2023-05-19T01:32:16.643Z,96.90
2023-05-19T01:34:50.946Z,96.60
2023-05-19T01:37:23.216Z,96.90
2023-05-19T01:39:53.346Z,97.10
2023-05-19T01:42:25.613Z,97.40
2023-05-19T01:44:56.592Z,97.30
2023-05-19T01:47:29.072Z,97.90
2023-05-19T01:49:59.655Z,97.70
2023-05-19T01:52:29.523Z,97.30
2023-05-19T01:54:59.589Z,97.20
2023-05-19T01:57:35.646Z,97.00
2023-05-19T02:00:12.229Z,96.90
2023-05-19T02:02:58.431Z,96.80
2023-05-19T02:05:33.639Z,96.50
2023-05-19T02:08:12.364Z,96.50
2023-05-19T02:10:48.829Z,96.30
2023-05-19T02:13:22.738Z,96.20
2023-05-19T02:15:54.120Z,96.00
2023-05-19T02:18:31.279Z,95.90
2023-05-19T02:21:01.185Z,96.00
2023-05-19T02:23:31.009Z,95.90
2023-05-19T02:26:00.806Z,96.10
2023-05-19T02:28:30.516Z,96.20
2023-05-19T02:31:05.754Z,96.40
2023-05-19T02:33:37.828Z,96.50
2023-05-19T02:36:09.463Z,96.80
2023-05-19T02:38:39.606Z,96.20
2023-05-19T02:41:09.423Z,96.80
2023-05-19T02:43:42.398Z,97.40
2023-05-19T02:46:13.446Z,97.20
2023-05-19T02:48:45.109Z,96.80
2023-05-19T02:51:14.698Z,96.70
2023-05-19T02:53:45.236Z,96.80
2023-05-19T02:56:14.946Z,96.60
2023-05-19T02:58:45.154Z,96.40
2023-05-19T03:01:14.936Z,96.80
2023-05-19T03:03:46.479Z,96.80
2023-05-19T03:06:18.300Z,97.20
2023-05-19T03:08:47.977Z,97.10
2023-05-19T03:11:17.596Z,97.70
2023-05-19T03:13:47.517Z,97.50
2023-05-19T03:16:17.389Z,97.70
2023-05-19T03:18:49.115Z,97.60
2023-05-19T03:21:18.997Z,97.60
2023-05-19T03:23:48.905Z,97.50
2023-05-19T03:26:18.518Z,97.40
2023-05-19T03:28:48.044Z,97.20
2023-05-19T03:31:18.152Z,97.30
2023-05-19T03:33:49.409Z,97.30
2023-05-19T03:36:19.391Z,97.10
2023-05-19T03:38:49.327Z,97.00
2023-05-19T03:41:19.156Z,96.80
2023-05-19T03:43:48.735Z,96.80
2023-05-19T03:46:19.224Z,96.60
2023-05-19T03:49:08.747Z,96.90
2023-05-19T03:52:04.870Z,97.10
2023-05-19T03:54:43.280Z,97.00
2023-05-19T03:57:13.313Z,97.00
2023-05-19T03:59:44.427Z,96.80
2023-05-19T04:02:14.066Z,96.80
2023-05-19T04:04:45.317Z,97.00
2023-05-19T04:07:14.997Z,96.80
2023-05-19T04:09:45.530Z,96.70
2023-05-19T04:12:15.139Z,96.60
2023-05-19T04:14:44.642Z,96.70
2023-05-19T04:17:14.495Z,96.60
2023-05-19T04:19:46.105Z,97.00
2023-05-19T04:22:15.921Z,96.80
2023-05-19T04:24:46.455Z,96.80
2023-05-19T04:27:16.873Z,96.90
2023-05-19T04:29:48.642Z,96.70
2023-05-19T04:32:19.269Z,97.00
2023-05-19T04:34:50.417Z,96.80
2023-05-19T04:37:26.468Z,96.80
2023-05-19T04:39:56.791Z,97.00
2023-05-19T04:42:33.479Z,97.20
2023-05-19T04:45:05.932Z,97.20
2023-05-19T04:47:39.170Z,97.20
2023-05-19T04:50:11.810Z,97.30
2023-05-19T04:52:42.134Z,97.20
2023-05-19T04:55:13.495Z,97.10
2023-05-19T04:57:45.546Z,97.30
2023-05-19T05:00:16.479Z,97.40
2023-05-19T05:02:58.890Z,97.20
2023-05-19T05:05:33.410Z,97.30
2023-05-19T05:08:03.626Z,97.50
2023-05-19T05:10:39.379Z,97.30
2023-05-19T05:13:11.603Z,97.00
2023-05-19T05:15:42.683Z,96.80
2023-05-19T05:18:13.941Z,96.90
2023-05-19T05:20:46.815Z,97.00
2023-05-19T05:23:18.057Z,96.70
2023-05-19T05:25:50.732Z,96.80
2023-05-19T05:28:22.390Z,96.80
2023-05-19T05:30:52.246Z,97.40
2023-05-19T05:33:22.769Z,97.00
2023-05-19T05:35:54.383Z,96.50
2023-05-19T05:38:24.198Z,95.70
2023-05-19T05:40:54.524Z,96.20
2023-05-19T05:43:24.350Z,96.30
2023-05-19T05:46:00.170Z,96.10
2023-05-19T05:48:30.502Z,96.60
2023-05-19T05:51:02.879Z,96.40
2023-05-19T05:53:43.456Z,96.00
2023-05-19T05:56:15.815Z,96.30
2023-05-19T05:58:52.906Z,96.30
2023-05-19T06:01:24.448Z,96.20
2023-05-19T06:03:55.722Z,95.80
2023-05-19T06:06:28.578Z,96.20
2023-05-19T06:08:58.726Z,96.20
2023-05-19T06:11:30.561Z,96.30
2023-05-19T06:14:01.728Z,96.10
2023-05-19T06:16:49.638Z,96.10
2023-05-19T06:19:21.838Z,95.70
2023-05-19T06:21:54.278Z,95.60
2023-05-19T06:24:23.987Z,95.10
2023-05-19T06:26:53.924Z,95.20
2023-05-19T06:29:23.817Z,94.90
2023-05-19T06:31:55.518Z,94.60
2023-05-19T06:34:25.395Z,94.20
2023-05-19T06:36:56.631Z,94.20
2023-05-19T06:39:27.680Z,93.60
2023-05-19T06:41:59.229Z,93.80
2023-05-19T06:44:48.719Z,93.80
2023-05-19T06:47:20.978Z,93.80
2023-05-19T06:49:55.658Z,93.40
2023-05-19T06:52:31.154Z,93.80
2023-05-19T06:55:03.937Z,93.80
2023-05-19T06:57:34.761Z,93.10
2023-05-19T07:00:07.340Z,93.10
2023-05-19T07:02:37.893Z,92.10
2023-05-19T07:05:10.034Z,92.00
2023-05-19T07:07:42.195Z,91.50
2023-05-19T07:10:16.318Z,91.40
2023-05-19T07:12:46.806Z,91.40
2023-05-19T07:15:19.521Z,91.10
2023-05-19T07:17:49.500Z,91.50
2023-05-19T07:20:19.446Z,91.00
2023-05-19T07:22:51.224Z,91.30
2023-05-19T07:25:21.224Z,90.70
2023-05-19T07:27:51.138Z,90.90
2023-05-19T07:30:21.257Z,90.90
2023-05-19T07:32:51.010Z,88.70
2023-05-19T07:35:20.979Z,89.50
2023-05-19T07:37:52.127Z,89.70
2023-05-19T07:40:21.837Z,89.10
2023-05-19T07:42:52.698Z,88.60
2023-05-19T07:45:22.488Z,87.10
2023-05-19T07:47:53.051Z,89.60
2023-05-19T07:50:22.932Z,89.30
2023-05-19T07:52:54.070Z,90.10
2023-05-19T07:55:23.783Z,89.10
2023-05-19T07:57:53.385Z,88.60
2023-05-19T08:00:23.194Z,89.80
2023-05-19T08:02:53.497Z,89.40
2023-05-19T08:05:23.223Z,85.30
2023-05-19T08:07:54.570Z,83.10
2023-05-19T08:10:24.438Z,83.00
2023-05-19T08:12:54.213Z,82.40
2023-05-19T08:15:23.732Z,83.00
2023-05-19T08:17:53.903Z,83.80
2023-05-19T08:20:25.200Z,84.90
2023-05-19T08:22:56.742Z,82.00
2023-05-19T08:25:28.395Z,81.40
2023-05-19T08:27:58.846Z,82.00
2023-05-19T08:30:29.859Z,82.40
2023-05-19T08:32:59.711Z,82.00
2023-05-19T08:35:29.474Z,81.70
2023-05-19T08:38:01.639Z,84.30
2023-05-19T08:40:32.339Z,84.00
2023-05-19T08:43:02.802Z,85.20
2023-05-19T08:45:34.933Z,85.80
2023-05-19T08:48:06.049Z,83.70
2023-05-19T08:50:41.658Z,85.50
2023-05-19T08:53:31.799Z,85.00
2023-05-19T08:56:10.725Z,86.30
2023-05-19T08:58:42.930Z,86.20
2023-05-19T09:01:17.434Z,86.00
2023-05-19T09:03:50.619Z,86.10
2023-05-19T09:06:20.355Z,85.70
2023-05-19T09:08:51.616Z,85.00
2023-05-19T09:11:23.049Z,85.40
2023-05-19T09:13:53.380Z,86.10
2023-05-19T09:16:23.666Z,86.20
2023-05-19T09:18:57.734Z,85.00
2023-05-19T09:21:32.658Z,85.40
2023-05-19T09:24:09.633Z,84.70
2023-05-19T09:26:40.584Z,82.70
2023-05-19T09:29:14.288Z,83.50
2023-05-19T09:31:51.988Z,84.50
2023-05-19T09:34:24.127Z,83.50
2023-05-19T09:36:54.516Z,85.90
2023-05-19T09:39:26.626Z,85.30
2023-05-19T09:41:59.046Z,85.30
2023-05-19T09:44:30.868Z,87.70
2023-05-19T09:47:00.874Z,87.00
2023-05-19T09:49:31.909Z,86.90
2023-05-19T09:52:04.104Z,86.70
2023-05-19T09:54:36.655Z,86.80
2023-05-19T09:57:08.823Z,86.80
2023-05-19T09:59:39.454Z,85.80
2023-05-19T10:02:16.431Z,87.00
2023-05-19T10:04:47.011Z,84.60
2023-05-19T10:07:18.113Z,86.30
2023-05-19T10:10:06.968Z,85.00
2023-05-19T10:12:36.476Z,86.50
2023-05-19T10:15:07.517Z,85.40
2023-05-19T10:17:39.735Z,86.20
2023-05-19T10:20:13.091Z,86.70
2023-05-19T10:22:43.799Z,84.80
2023-05-19T10:25:20.575Z,82.90
2023-05-19T10:27:55.302Z,82.90
2023-05-19T10:30:32.610Z,81.40
2023-05-19T10:33:03.991Z,79.10
2023-05-19T10:35:56.291Z,80.50
2023-05-19T10:38:34.277Z,80.10
2023-05-19T10:41:12.683Z,79.10
2023-05-19T10:43:51.102Z,82.30
2023-05-19T10:46:27.607Z,81.40
2023-05-19T10:48:57.386Z,81.50
2023-05-19T10:51:33.451Z,80.10
2023-05-19T10:54:06.533Z,80.80
2023-05-19T10:56:43.238Z,79.10
2023-05-19T10:59:33.916Z,79.00
2023-05-19T11:02:06.304Z,77.70
2023-05-19T11:04:51.379Z,79.70
2023-05-19T11:07:22.823Z,76.90
2023-05-19T11:09:53.429Z,78.30
2023-05-19T11:12:25.574Z,77.20
2023-05-19T11:14:56.238Z,74.40
2023-05-19T11:17:31.159Z,72.80
2023-05-19T11:20:04.569Z,75.60
2023-05-19T11:22:37.660Z,77.10
2023-05-19T11:25:09.409Z,75.90
2023-05-19T11:27:41.465Z,74.40
2023-05-19T11:30:15.386Z,73.00
2023-05-19T11:32:46.260Z,74.10
2023-05-19T11:35:17.149Z,69.80
2023-05-19T11:37:49.518Z,73.80
2023-05-19T11:40:19.953Z,70.30
2023-05-19T11:42:51.300Z,65.80
2023-05-19T11:45:27.668Z,69.50
2023-05-19T11:48:02.496Z,70.40
2023-05-19T11:50:37.529Z,69.60
2023-05-19T11:53:07.542Z,69.90
2023-05-19T11:55:37.357Z,72.00
2023-05-19T11:58:08.605Z,71.20
2023-05-19T12:00:40.587Z,73.40
2023-05-19T12:03:11.539Z,73.00
2023-05-19T12:05:46.766Z,72.50
2023-05-19T12:08:18.408Z,71.40
2023-05-19T12:10:51.397Z,69.00
2023-05-19T12:13:24.067Z,71.80
2023-05-19T12:15:54.418Z,72.60
2023-05-19T12:18:24.303Z,70.20
2023-05-19T12:20:53.920Z,71.90
2023-05-19T12:23:25.146Z,69.50
2023-05-19T12:25:55.058Z,71.30
2023-05-19T12:28:41.262Z,70.70
2023-05-19T12:31:11.226Z,71.50
2023-05-19T12:33:53.383Z,73.60
2023-05-19T12:36:25.346Z,71.90
2023-05-19T12:38:56.813Z,72.90
2023-05-19T12:41:28.957Z,72.00
2023-05-19T12:44:00.624Z,72.20
2023-05-19T12:46:30.414Z,71.60
2023-05-19T12:49:02.597Z,72.20
2023-05-19T12:51:32.096Z,72.80
2023-05-19T12:54:04.827Z,70.80
2023-05-19T12:56:34.797Z,70.30
2023-05-19T13:02:02.896Z,71.20
2023-05-19T13:04:34.035Z,71.10
2023-05-19T13:07:05.999Z,69.20
2023-05-19T13:09:37.147Z,72.90
2023-05-19T13:12:07.550Z,72.50
2023-05-19T13:14:42.074Z,70.40
2023-05-19T13:17:12.008Z,71.40
2023-05-19T13:19:41.811Z,72.10
2023-05-19T13:22:11.453Z,71.90
2023-05-19T13:24:41.846Z,72.00
2023-05-19T13:27:11.442Z,71.70
2023-05-19T13:29:42.491Z,71.10
2023-05-19T13:32:12.204Z,72.10
2023-05-19T13:34:42.536Z,70.60
2023-05-19T13:37:12.680Z,71.50
2023-05-19T13:39:42.551Z,70.20
2023-05-19T13:42:12.184Z,71.40
2023-05-19T13:44:43.612Z,70.80
2023-05-19T13:47:13.158Z,69.40
2023-05-19T13:49:44.764Z,67.60
2023-05-19T13:52:15.088Z,68.00
2023-05-19T13:54:45.208Z,67.80
2023-05-19T13:57:15.336Z,68.50
2023-05-19T14:00:00.877Z,69.40
2023-05-19T14:02:41.597Z,68.30
2023-05-19T14:05:11.806Z,68.50
2023-05-19T14:07:42.032Z,67.10
2023-05-19T14:10:12.889Z,70.20
2023-05-19T14:13:07.901Z,70.60
2023-05-19T14:15:38.405Z,70.00
2023-05-19T14:18:08.759Z,70.80
2023-05-19T14:20:38.422Z,70.20
2023-05-19T14:23:09.048Z,69.70
2023-05-19T14:25:38.865Z,68.00
2023-05-19T14:28:11.246Z,67.90
2023-05-19T14:30:43.405Z,70.90
2023-05-19T14:33:13.771Z,72.70
2023-05-19T14:35:43.531Z,69.70
2023-05-19T14:38:14.189Z,72.80
2023-05-19T14:40:44.392Z,72.90
2023-05-19T14:43:13.997Z,72.00
2023-05-19T14:45:46.484Z,73.50
2023-05-19T14:48:16.739Z,74.10
2023-05-19T14:50:48.778Z,75.30
2023-05-19T14:53:18.877Z,75.00
2023-05-19T14:55:51.358Z,75.60
2023-05-19T14:58:29.034Z,76.50
2023-05-19T15:01:02.155Z,78.80
2023-05-19T15:03:32.162Z,78.40
2023-05-19T15:06:02.178Z,79.10
2023-05-19T15:08:31.887Z,78.20
2023-05-19T15:11:02.004Z,80.40
2023-05-19T15:13:31.509Z,80.10
2023-05-19T15:16:16.252Z,80.90
2023-05-19T15:18:47.855Z,80.60
2023-05-19T15:21:18.362Z,79.10
2023-05-19T15:23:48.878Z,78.60
2023-05-19T15:26:18.893Z,79.90
2023-05-19T15:28:48.910Z,78.50
2023-05-19T15:31:21.315Z,79.20
2023-05-19T15:33:51.300Z,78.80
2023-05-19T15:36:21.820Z,78.90
2023-05-19T15:38:52.360Z,79.30
2023-05-19T15:41:22.377Z,79.00
2023-05-19T15:43:53.750Z,76.50
2023-05-19T15:46:25.333Z,78.10
2023-05-19T15:48:55.910Z,77.80
2023-05-19T15:51:26.847Z,77.30
2023-05-19T15:53:56.660Z,77.20
2023-05-19T15:56:26.468Z,75.50
2023-05-19T15:58:56.287Z,75.70
2023-05-19T16:01:27.988Z,75.40
2023-05-19T16:03:57.738Z,74.20
2023-05-19T16:06:27.970Z,75.30
2023-05-19T16:08:57.672Z,71.70
2023-05-19T16:11:27.901Z,72.60
2023-05-19T16:13:57.502Z,72.10
2023-05-19T16:16:28.804Z,73.50
2023-05-19T16:18:58.576Z,73.30
2023-05-19T16:21:28.682Z,74.60
2023-05-19T16:23:58.900Z,75.80
2023-05-19T16:26:29.333Z,75.00
2023-05-19T16:28:59.163Z,75.30
2023-05-19T16:31:30.286Z,76.10
2023-05-19T16:34:00.184Z,75.50
2023-05-19T16:36:29.814Z,76.20
2023-05-19T16:38:59.415Z,76.80
2023-05-19T16:41:29.939Z,78.10
2023-05-19T16:43:59.657Z,78.60
2023-05-19T16:46:31.747Z,79.20
2023-05-19T16:49:02.154Z,77.80
2023-05-19T16:51:31.842Z,78.50
2023-05-19T16:54:01.249Z,79.50
2023-05-19T16:56:30.860Z,80.10
2023-05-19T16:59:01.489Z,80.10
2023-05-19T17:01:32.547Z,79.30
2023-05-19T17:04:02.798Z,80.20
2023-05-19T17:06:32.768Z,79.70
2023-05-19T17:09:02.897Z,81.00
2023-05-19T17:11:32.698Z,81.30
2023-05-19T17:14:02.509Z,81.80
2023-05-19T17:16:33.780Z,81.60
2023-05-19T17:19:04.375Z,81.50
2023-05-19T17:21:34.301Z,81.20
2023-05-19T17:24:03.924Z,81.90
2023-05-19T17:26:34.030Z,83.10
2023-05-19T17:29:03.643Z,85.50
2023-05-19T17:31:34.889Z,90.00
2023-05-19T17:34:04.602Z,89.40
2023-05-19T17:36:34.198Z,91.10
2023-05-19T17:39:04.108Z,91.30
2023-05-19T17:41:34.326Z,90.50
2023-05-19T17:44:04.152Z,90.70
2023-05-19T17:46:36.473Z,91.90
2023-05-19T17:49:06.117Z,92.80
2023-05-19T17:51:36.357Z,93.40
2023-05-19T17:54:06.691Z,92.80
2023-05-19T17:56:39.651Z,91.80
2023-05-19T17:59:10.075Z,91.50
2023-05-19T18:01:42.181Z,91.00
2023-05-19T18:04:13.944Z,92.00
2023-05-19T18:06:46.648Z,91.40
2023-05-19T18:09:17.925Z,92.30
2023-05-19T18:11:48.046Z,92.70
2023-05-19T18:14:17.759Z,92.80
2023-05-19T18:16:52.479Z,93.20
2023-05-19T18:19:22.462Z,94.30
2023-05-19T18:21:53.333Z,93.70
2023-05-19T18:24:22.948Z,94.80
2023-05-19T18:26:52.769Z,97.10
2023-05-19T18:29:22.465Z,97.20
2023-05-19T18:31:53.541Z,97.40
2023-05-19T18:34:23.425Z,97.10
2023-05-19T18:36:53.127Z,99.20
2023-05-19T18:39:22.862Z,99.30
2023-05-19T18:41:52.971Z,99.90
2023-05-19T18:44:22.971Z,99.90
2023-05-19T18:46:54.417Z,99.90
2023-05-19T18:49:25.975Z,99.90
2023-05-19T18:51:55.800Z,99.40
2023-05-19T18:54:25.508Z,99.90
2023-05-19T18:56:56.028Z,99.00
2023-05-19T18:59:26.149Z,99.40
2023-05-19T19:01:58.626Z,99.40
2023-05-19T19:04:28.797Z,99.70
2023-05-19T19:06:58.443Z,99.80
2023-05-19T19:09:27.948Z,99.90
2023-05-19T19:11:57.770Z,99.90
2023-05-19T19:14:27.388Z,99.90
2023-05-19T19:16:58.528Z,99.90
2023-05-19T19:19:30.240Z,99.90
2023-05-19T19:21:59.996Z,99.90
2023-05-19T19:24:31.215Z,99.30
2023-05-19T19:27:01.169Z,99.30
2023-05-19T19:29:30.950Z,99.00
2023-05-19T19:32:02.249Z,98.40
2023-05-19T19:34:32.121Z,98.70
2023-05-19T19:37:02.261Z,98.70
2023-05-19T19:39:33.073Z,98.20
2023-05-19T19:42:02.898Z,98.00
2023-05-19T19:44:32.698Z,98.40
2023-05-19T19:47:06.290Z,97.90
2023-05-19T19:49:36.604Z,98.10
2023-05-19T19:52:07.253Z,97.90
2023-05-19T19:54:37.681Z,97.50
2023-05-19T19:57:07.786Z,97.50
2023-05-19T19:59:38.221Z,97.80
2023-05-19T20:02:09.536Z,97.30
2023-05-19T20:04:39.825Z,97.50
2023-05-19T20:07:09.809Z,96.90
2023-05-19T20:09:39.743Z,96.90
2023-05-19T20:12:10.137Z,97.20
2023-05-19T20:14:39.965Z,96.90
2023-05-19T20:17:11.673Z,96.90
2023-05-19T20:19:41.321Z,96.90
2023-05-19T20:22:11.130Z,96.80
2023-05-19T20:24:40.757Z,96.80
2023-05-19T20:27:13.829Z,96.90
2023-05-19T20:29:43.852Z,96.80
2023-05-19T20:32:15.084Z,96.90
2023-05-19T20:34:45.361Z,96.90
2023-05-19T20:37:15.437Z,97.20
2023-05-19T20:39:45.251Z,97.10
2023-05-19T20:42:15.064Z,97.10
2023-05-19T20:44:44.975Z,96.90
2023-05-19T20:47:16.738Z,97.10
2023-05-19T20:49:46.361Z,97.30
2023-05-19T20:52:16.573Z,97.10
2023-05-19T20:54:46.997Z,97.00
2023-05-19T20:57:16.901Z,96.60
2023-05-19T20:59:46.609Z,96.40
2023-05-19T21:02:17.771Z,96.20
2023-05-19T21:04:49.251Z,96.20
2023-05-19T21:07:18.904Z,95.80
2023-05-19T21:09:50.771Z,96.10
2023-05-19T21:12:24.177Z,95.50
2023-05-19T21:14:54.184Z,95.30
2023-05-19T21:17:25.468Z,95.20
2023-05-19T21:19:58.313Z,94.90
2023-05-19T21:22:28.650Z,95.20
2023-05-19T21:24:58.469Z,94.90
2023-05-19T21:27:28.360Z,95.20
2023-05-19T21:29:58.170Z,95.10
2023-05-19T21:32:29.971Z,94.70
2023-05-19T21:35:00.354Z,94.90
2023-05-19T21:37:30.183Z,94.70
2023-05-19T21:39:59.877Z,94.90
2023-05-19T21:42:29.390Z,95.00
2023-05-19T21:44:59.091Z,95.00
2023-05-19T21:47:30.415Z,95.00
2023-05-19T21:49:59.939Z,95.10
2023-05-19T21:52:29.552Z,95.20
2023-05-19T21:54:59.158Z,95.30
2023-05-19T21:57:33.061Z,95.30
2023-05-19T22:00:02.669Z,95.40
2023-05-19T22:02:42.896Z,95.20
2023-05-19T22:05:13.187Z,95.60
2023-05-19T22:07:43.168Z,95.70
2023-05-19T22:10:13.792Z,95.60
2023-05-19T22:12:43.530Z,95.40
2023-05-19T22:15:16.302Z,95.50
2023-05-19T22:17:47.623Z,95.70
2023-05-19T22:20:17.666Z,95.70
2023-05-19T22:22:47.455Z,95.60
2023-05-19T22:25:17.078Z,95.70
2023-05-19T22:27:46.791Z,95.70
2023-05-19T22:30:16.699Z,96.00
2023-05-19T22:32:48.084Z,96.10
2023-05-19T22:35:17.849Z,96.20
2023-05-19T22:37:47.545Z,96.40
2023-05-19T22:40:17.170Z,96.30
2023-05-19T22:42:46.669Z,96.40
2023-05-19T22:45:16.696Z,96.40
2023-05-19T22:47:48.346Z,96.50
2023-05-19T22:50:18.152Z,96.80
2023-05-19T22:52:48.066Z,96.80
2023-05-19T22:55:18.395Z,96.60
2023-05-19T22:57:48.311Z,96.90
2023-05-19T23:00:21.127Z,96.90
2023-05-19T23:02:52.563Z,96.60
2023-05-19T23:05:22.266Z,96.80
2023-05-19T23:07:52.161Z,96.90
2023-05-19T23:10:21.976Z,96.80
2023-05-19T23:12:51.893Z,97.00
2023-05-19T23:15:21.702Z,97.00
2023-05-19T23:17:53.232Z,97.10
2023-05-19T23:20:22.872Z,97.30
2023-05-19T23:22:52.574Z,97.50
2023-05-19T23:25:22.175Z,97.20
2023-05-19T23:27:51.881Z,97.30
2023-05-19T23:30:21.592Z,97.40
2023-05-19T23:32:53.485Z,97.20
2023-05-19T23:35:23.577Z,97.30
2023-05-19T23:37:54.727Z,97.20
2023-05-19T23:40:24.536Z,97.00
2023-05-19T23:42:54.141Z,96.50
2023-05-19T23:45:23.848Z,96.50
2023-05-19T23:47:54.856Z,96.10
2023-05-19T23:50:24.620Z,95.70
2023-05-19T23:52:54.215Z,95.60
2023-05-19T23:55:24.123Z,95.80
2023-05-19T23:57:53.755Z,95.60
